createdAt,value
2022-08-11T00:00:12.104Z,99.66
2022-08-11T00:03:10.882Z,99.81
2022-08-11T00:05:51.852Z,99.35
2022-08-11T00:08:33.325Z,99.85
2022-08-11T00:11:12.679Z,99.94
2022-08-11T00:13:53.727Z,99.66
2022-08-11T00:16:29.069Z,99.27
2022-08-11T00:19:00.773Z,99.22
2022-08-11T00:22:03.853Z,99.83
2022-08-11T00:24:24.044Z,99.89
2022-08-11T00:26:57.406Z,99.94
2022-08-11T00:29:26.589Z,99.72
2022-08-11T00:32:05.597Z,99.41
2022-08-11T00:34:38.092Z,99.04
2022-08-11T00:37:08.130Z,98.83
2022-08-11T00:39:52.929Z,98.79
2022-08-11T00:42:48.019Z,98.69
2022-08-11T00:45:25.718Z,98.53
2022-08-11T00:48:18.973Z,98.39
2022-08-11T00:51:23.768Z,98.23
2022-08-11T00:54:01.821Z,98.12
2022-08-11T00:57:09.262Z,98.39
2022-08-11T01:00:12.999Z,98.33
2022-08-11T01:03:17.934Z,98.47
2022-08-11T01:06:30.648Z,98.12
2022-08-11T01:09:26.183Z,98.00
2022-08-11T01:12:21.009Z,97.96
2022-08-11T01:15:22.595Z,97.82
2022-08-11T01:18:15.566Z,97.86
2022-08-11T01:21:14.790Z,97.67
2022-08-11T01:24:03.725Z,97.92
2022-08-11T01:27:03.027Z,97.93
2022-08-11T01:29:57.988Z,97.64
2022-08-11T01:32:56.508Z,97.54
2022-08-11T01:36:05.983Z,98.11
2022-08-11T01:38:45.401Z,98.33
2022-08-11T01:41:20.031Z,98.71
2022-08-11T01:44:33.447Z,98.14
2022-08-11T01:47:58.070Z,97.77
2022-08-11T01:50:44.013Z,97.49
2022-08-11T01:53:42.300Z,97.49
2022-08-11T01:56:33.875Z,97.96
2022-08-11T01:59:39.348Z,97.76
2022-08-11T02:02:09.335Z,97.46
2022-08-11T02:05:21.790Z,97.27
2022-08-11T02:08:33.623Z,96.91
2022-08-11T02:11:37.518Z,96.95
2022-08-11T02:15:04.411Z,96.76
2022-08-11T02:18:09.605Z,96.56
2022-08-11T02:21:33.387Z,96.48
2022-08-11T02:24:15.565Z,96.35
2022-08-11T02:27:20.408Z,96.82
2022-08-11T02:30:11.995Z,96.66
2022-08-11T02:33:16.998Z,96.40
2022-08-11T02:36:04.640Z,96.23
2022-08-11T02:38:55.150Z,96.04
2022-08-11T02:41:57.929Z,96.42
2022-08-11T02:45:11.097Z,96.53
2022-08-11T02:48:21.016Z,96.39
2022-08-11T02:51:33.986Z,96.20
2022-08-11T02:54:13.300Z,96.38
2022-08-11T02:56:46.105Z,96.52
2022-08-11T02:59:56.155Z,96.70
2022-08-11T03:02:52.324Z,96.84
2022-08-11T03:05:44.465Z,97.97
2022-08-11T03:08:27.729Z,98.41
2022-08-11T03:11:21.442Z,97.84
2022-08-11T03:14:34.249Z,97.25
2022-08-11T03:17:10.425Z,96.79
2022-08-11T03:19:50.689Z,97.57
2022-08-11T03:22:29.155Z,98.86
2022-08-11T03:25:31.167Z,99.01
2022-08-11T03:28:49.220Z,98.89
2022-08-11T03:31:35.731Z,98.67
2022-08-11T03:34:18.506Z,98.69
2022-08-11T03:37:16.648Z,98.18
2022-08-11T03:40:04.298Z,98.41
2022-08-11T03:43:08.852Z,98.17
2022-08-11T03:46:27.615Z,97.41
2022-08-11T03:49:11.185Z,96.91
2022-08-11T03:51:55.562Z,96.73
2022-08-11T03:54:49.139Z,97.55
2022-08-11T03:57:58.997Z,97.53
2022-08-11T04:00:46.748Z,96.67
2022-08-11T04:03:52.341Z,96.29
2022-08-11T04:06:56.574Z,96.61
2022-08-11T04:10:20.760Z,96.31
2022-08-11T04:13:14.393Z,96.57
2022-08-11T04:16:21.219Z,96.67
2022-08-11T04:18:51.449Z,95.79
2022-08-11T04:21:23.524Z,95.56
2022-08-11T04:24:38.541Z,95.45
2022-08-11T04:27:42.038Z,95.35
2022-08-11T04:30:26.897Z,95.58
2022-08-11T04:33:18.194Z,95.62
2022-08-11T04:35:52.613Z,95.78
2022-08-11T04:39:29.043Z,95.16
2022-08-11T04:43:05.785Z,95.10
2022-08-11T04:46:18.692Z,94.23
2022-08-11T04:49:13.446Z,93.87
2022-08-11T04:52:41.768Z,93.40
2022-08-11T04:56:04.939Z,92.71
2022-08-11T04:59:26.315Z,92.30
2022-08-11T05:02:03.338Z,92.06
2022-08-11T05:05:19.637Z,92.10
2022-08-11T05:08:25.155Z,92.22
2022-08-11T05:11:39.920Z,91.88
2022-08-11T05:18:00.560Z,91.17
2022-08-11T05:20:48.889Z,90.84
2022-08-11T05:23:51.157Z,91.04
2022-08-11T05:26:49.323Z,91.09
2022-08-11T05:30:18.657Z,90.52
2022-08-11T05:33:20.982Z,89.67
2022-08-11T05:36:03.349Z,88.19
2022-08-11T05:46:03.922Z,84.72
2022-08-11T05:49:04.090Z,83.38
2022-08-11T05:51:55.784Z,82.42
2022-08-11T05:54:54.430Z,81.76
2022-08-11T05:57:48.301Z,78.43
2022-08-11T06:00:20.412Z,73.24
2022-08-11T06:06:26.812Z,69.12
2022-08-11T06:08:59.137Z,67.77
2022-08-11T06:15:22.846Z,65.15
2022-08-11T06:18:15.807Z,63.83
2022-08-11T06:21:30.712Z,60.01
2022-08-11T06:24:07.701Z,64.42
2022-08-11T06:26:49.604Z,58.01
2022-08-11T06:29:38.285Z,54.35
2022-08-11T06:32:40.294Z,53.99
2022-08-11T06:35:38.407Z,52.19
2022-08-11T06:38:46.124Z,50.56
2022-08-11T06:45:37.508Z,49.18
2022-08-11T06:49:39.077Z,47.25
2022-08-11T06:52:42.029Z,45.41
2022-08-11T06:56:01.629Z,44.49
2022-08-11T07:07:10.034Z,43.56
2022-08-11T07:10:42.033Z,41.59
2022-08-11T07:16:32.598Z,36.57
2022-08-11T07:19:28.071Z,35.37
2022-08-11T07:22:30.707Z,34.90
2022-08-11T07:25:43.660Z,34.82
2022-08-11T07:28:56.707Z,33.41
2022-08-11T07:50:32.869Z,35.25
2022-08-11T07:53:15.892Z,35.75
2022-08-11T07:56:15.714Z,33.29
2022-08-11T07:59:08.784Z,34.27
2022-08-11T08:02:22.518Z,33.78
2022-08-11T08:06:28.574Z,32.97
2022-08-11T08:09:47.470Z,33.31
2022-08-11T08:12:40.131Z,33.17
2022-08-11T08:15:35.948Z,32.64
2022-08-11T08:18:26.329Z,33.48
2022-08-11T08:21:27.093Z,33.44
2022-08-11T08:24:00.435Z,33.22
2022-08-11T08:27:03.353Z,33.73
2022-08-11T08:30:08.569Z,35.06
2022-08-11T08:33:29.470Z,34.75
2022-08-11T08:36:21.813Z,34.14
2022-08-11T08:38:56.095Z,32.32
2022-08-11T08:41:34.810Z,32.28
2022-08-11T08:44:37.801Z,32.13
2022-08-11T08:47:37.816Z,32.37
2022-08-11T08:50:27.716Z,33.01
2022-08-11T08:53:08.268Z,33.11
2022-08-11T08:55:48.691Z,33.28
2022-08-11T08:58:24.332Z,33.57
2022-08-11T09:00:56.397Z,33.26
2022-08-11T09:04:07.020Z,32.19
2022-08-11T09:06:30.434Z,32.70
2022-08-11T09:09:02.042Z,33.60
2022-08-11T09:11:52.088Z,33.99
2022-08-11T09:14:56.487Z,35.05
2022-08-11T09:17:42.249Z,36.12
2022-08-11T09:20:29.804Z,37.04
2022-08-11T09:24:07.133Z,38.22
2022-08-11T09:37:56.012Z,40.62
2022-08-11T09:42:00.853Z,40.82
2022-08-11T09:49:24.665Z,41.99
2022-08-11T09:52:02.184Z,41.45
2022-08-11T09:54:43.986Z,42.02
2022-08-11T09:57:44.539Z,41.69
2022-08-11T10:01:01.602Z,41.49
2022-08-11T10:04:06.363Z,41.72
2022-08-11T10:06:57.855Z,41.46
2022-08-11T10:09:52.270Z,41.30
2022-08-11T10:12:40.830Z,39.84
2022-08-11T10:15:32.860Z,39.46
2022-08-11T10:18:41.920Z,38.95
2022-08-11T10:22:10.475Z,39.09
2022-08-11T10:25:06.559Z,36.00
2022-08-11T10:29:22.721Z,34.94
2022-08-11T10:33:12.702Z,34.69
2022-08-11T10:36:02.466Z,35.55
2022-08-11T10:38:51.790Z,35.98
2022-08-11T10:42:06.837Z,36.48
2022-08-11T10:45:26.309Z,36.18
2022-08-11T10:48:42.571Z,36.21
2022-08-11T10:52:06.732Z,35.99
2022-08-11T10:55:33.004Z,36.71
2022-08-11T11:05:26.089Z,37.18
2022-08-11T11:08:43.985Z,37.83
2022-08-11T11:12:16.659Z,38.05
2022-08-11T11:19:01.197Z,38.39
2022-08-11T11:21:32.668Z,38.45
2022-08-11T11:24:56.464Z,38.72
2022-08-11T11:27:30.738Z,38.95
2022-08-11T11:30:09.701Z,38.83
2022-08-11T11:33:02.562Z,38.20
2022-08-11T11:35:45.763Z,37.95
2022-08-11T11:38:19.836Z,38.34
2022-08-11T11:45:23.289Z,39.08
2022-08-11T11:50:17.884Z,39.57
2022-08-11T11:58:41.789Z,39.38
2022-08-11T12:01:19.538Z,39.37
2022-08-11T12:04:36.097Z,39.91
2022-08-11T12:08:13.166Z,40.59
2022-08-11T12:11:35.574Z,40.64
2022-08-11T12:14:29.286Z,40.55
2022-08-11T12:17:06.144Z,40.22
2022-08-11T12:19:52.217Z,39.42
2022-08-11T12:23:45.901Z,39.44
2022-08-11T12:34:52.347Z,39.05
2022-08-11T12:38:54.753Z,38.96
2022-08-11T12:58:16.237Z,39.17
2022-08-11T13:01:54.697Z,39.22
2022-08-11T13:04:47.993Z,39.74
2022-08-11T13:07:53.180Z,40.45
2022-08-11T13:10:41.829Z,41.40
2022-08-11T13:21:29.371Z,41.96
2022-08-11T13:24:03.559Z,41.70
2022-08-11T13:27:48.664Z,41.44
2022-08-11T13:30:47.138Z,40.92
2022-08-11T13:33:19.191Z,40.98
2022-08-11T13:35:53.662Z,41.34
2022-08-11T13:38:29.244Z,41.82
2022-08-11T13:45:22.305Z,41.90
2022-08-11T13:48:04.439Z,41.55
2022-08-11T13:51:21.252Z,42.21
2022-08-11T13:54:30.120Z,42.10
2022-08-11T13:57:13.692Z,41.73
2022-08-11T14:03:12.423Z,41.38
2022-08-11T14:09:34.676Z,41.31
2022-08-11T14:12:35.141Z,41.51
2022-08-11T14:15:57.163Z,41.50
2022-08-11T14:18:54.723Z,41.65
2022-08-11T14:22:08.653Z,41.95
2022-08-11T14:24:49.534Z,42.07
2022-08-11T14:31:00.528Z,41.61
2022-08-11T14:34:00.045Z,41.60
2022-08-11T14:37:18.892Z,41.57
2022-08-11T14:40:33.287Z,41.67
2022-08-11T15:11:22.277Z,41.58
2022-08-11T15:18:33.830Z,42.55
2022-08-11T15:21:43.492Z,42.70
2022-08-11T15:26:04.993Z,42.56
2022-08-11T15:29:30.205Z,42.45
2022-08-11T15:32:25.555Z,42.03
2022-08-11T15:35:39.474Z,42.45
2022-08-11T15:38:29.244Z,42.45
2022-08-11T15:41:24.958Z,41.62
2022-08-11T15:44:33.791Z,42.16
2022-08-11T15:47:33.223Z,43.13
2022-08-11T16:04:06.008Z,44.23
2022-08-11T16:07:20.618Z,44.76
2022-08-11T16:10:30.200Z,46.24
2022-08-11T16:13:44.667Z,47.40
2022-08-11T16:16:28.466Z,47.95
2022-08-11T16:19:10.872Z,49.24
2022-08-11T16:23:00.298Z,50.34
2022-08-11T16:27:03.666Z,51.53
2022-08-11T16:28:27.621Z,51.96
2022-08-11T16:30:57.143Z,52.39
2022-08-11T16:33:49.566Z,53.39
2022-08-11T16:36:47.525Z,53.96
2022-08-11T16:39:18.001Z,54.65
2022-08-11T16:43:08.712Z,54.82
2022-08-11T16:46:19.152Z,54.68
2022-08-11T16:49:03.113Z,54.96
2022-08-11T16:51:39.831Z,54.68
2022-08-11T16:54:13.726Z,54.79
2022-08-11T16:56:52.877Z,55.81
2022-08-11T16:59:33.367Z,56.07
2022-08-11T17:02:54.357Z,56.55
2022-08-11T17:05:53.686Z,57.61
2022-08-11T17:08:59.537Z,58.58
2022-08-11T17:12:14.690Z,58.86
2022-08-11T17:14:55.549Z,59.45
2022-08-11T17:17:43.684Z,59.51
2022-08-11T17:20:39.550Z,59.74
2022-08-11T17:23:27.847Z,59.98
2022-08-11T17:26:04.290Z,60.13
2022-08-11T17:28:37.106Z,61.08
2022-08-11T17:31:30.619Z,61.07
2022-08-11T17:34:21.849Z,61.22
2022-08-11T17:36:55.876Z,62.66
2022-08-11T17:39:30.568Z,62.79
2022-08-11T17:42:18.909Z,62.78
2022-08-11T17:45:10.699Z,62.83
2022-08-11T17:48:07.729Z,63.70
2022-08-11T17:50:44.670Z,62.87
2022-08-11T17:53:40.444Z,62.20
2022-08-11T17:56:55.114Z,63.17
2022-08-11T18:03:07.814Z,63.73
2022-08-11T18:05:46.621Z,65.41
2022-08-11T18:08:35.559Z,64.92
2022-08-11T18:12:06.997Z,64.78
2022-08-11T18:15:02.903Z,64.95
2022-08-11T18:17:59.650Z,65.62
2022-08-11T18:21:02.860Z,65.47
2022-08-11T18:23:53.012Z,67.52
2022-08-11T18:26:48.814Z,66.60
2022-08-11T18:29:42.648Z,67.59
2022-08-11T18:32:53.690Z,67.67
2022-08-11T18:35:50.660Z,66.66
2022-08-11T18:38:41.272Z,68.28
2022-08-11T18:41:38.677Z,70.12
2022-08-11T18:44:31.887Z,69.80
2022-08-11T18:47:32.716Z,69.81
2022-08-11T18:50:38.829Z,69.34
2022-08-11T18:53:37.099Z,69.67
2022-08-11T18:56:32.381Z,69.40
2022-08-11T18:59:27.973Z,70.23
2022-08-11T19:02:23.705Z,70.76
2022-08-11T19:05:11.435Z,69.95
2022-08-11T19:08:05.400Z,70.16
2022-08-11T19:10:59.450Z,70.44
2022-08-11T19:13:55.021Z,69.80
2022-08-11T19:16:53.326Z,69.88
2022-08-11T19:19:47.495Z,69.67
2022-08-11T19:22:45.833Z,70.42
2022-08-11T19:25:34.517Z,69.76
2022-08-11T19:28:29.781Z,69.67
2022-08-11T19:31:25.752Z,69.91
2022-08-11T19:34:15.961Z,70.75
2022-08-11T19:37:08.031Z,71.75
2022-08-11T19:39:55.821Z,72.13
2022-08-11T19:42:48.034Z,72.09
2022-08-11T19:45:38.433Z,73.67
2022-08-11T19:48:32.268Z,73.48
2022-08-11T19:51:27.181Z,74.59
2022-08-11T19:54:15.175Z,74.65
2022-08-11T19:57:11.093Z,75.51
2022-08-11T19:59:59.052Z,76.23
2022-08-11T20:02:53.226Z,75.64
2022-08-11T20:05:55.620Z,75.35
2022-08-11T20:08:52.999Z,74.39
2022-08-11T20:11:57.737Z,74.34
2022-08-11T20:14:52.065Z,75.94
2022-08-11T20:17:55.512Z,76.31
2022-08-11T20:20:47.133Z,75.98
2022-08-11T20:23:43.388Z,75.95
2022-08-11T20:26:33.208Z,75.66
2022-08-11T20:29:20.781Z,75.72
2022-08-11T20:32:19.450Z,76.81
2022-08-11T20:35:06.430Z,77.68
2022-08-11T20:38:00.334Z,77.77
2022-08-11T20:40:51.918Z,79.30
2022-08-11T20:44:05.876Z,78.23
2022-08-11T20:46:58.224Z,77.61
2022-08-11T20:49:58.675Z,78.16
2022-08-11T20:52:50.244Z,79.42
2022-08-11T20:55:53.672Z,78.10
2022-08-11T21:02:03.129Z,78.20
2022-08-11T21:06:09.148Z,77.84
2022-08-11T21:09:58.048Z,77.91
2022-08-11T21:12:39.333Z,78.67
2022-08-11T21:15:47.648Z,79.69
2022-08-11T21:18:45.386Z,80.19
2022-08-11T21:21:45.749Z,78.68
2022-08-11T21:24:42.768Z,78.88
2022-08-11T21:27:53.803Z,79.75
2022-08-11T21:34:58.390Z,79.15
2022-08-11T21:37:50.282Z,79.06
2022-08-11T21:40:49.887Z,79.23
2022-08-11T21:43:52.864Z,78.94
2022-08-11T21:46:43.514Z,79.97
2022-08-11T21:49:32.747Z,79.59
2022-08-11T21:52:25.115Z,81.29
2022-08-11T21:55:20.320Z,81.24
2022-08-11T21:58:14.329Z,80.64
2022-08-11T22:01:04.441Z,80.25
2022-08-11T22:03:56.378Z,80.00
2022-08-11T22:06:48.544Z,80.39
2022-08-11T22:09:37.494Z,80.44
2022-08-11T22:12:42.673Z,79.84
2022-08-11T22:15:42.752Z,80.68
2022-08-11T22:18:33.196Z,80.29
2022-08-11T22:22:02.845Z,80.24
2022-08-11T22:24:44.597Z,80.51
2022-08-11T22:27:42.652Z,81.82
2022-08-11T22:30:31.503Z,80.67
2022-08-11T22:33:28.769Z,80.21
2022-08-11T22:36:22.688Z,79.99
2022-08-11T22:39:12.022Z,79.69
2022-08-11T22:42:02.723Z,80.45
2022-08-11T22:44:55.063Z,81.19
2022-08-11T22:47:51.049Z,80.68
2022-08-11T22:50:45.934Z,80.17
2022-08-11T22:53:57.456Z,80.24
2022-08-11T22:56:51.122Z,80.15
2022-08-11T22:59:45.744Z,80.04
2022-08-11T23:02:39.011Z,80.57
2022-08-11T23:05:32.834Z,80.61
2022-08-11T23:08:22.686Z,80.27
2022-08-11T23:11:11.587Z,79.64
2022-08-11T23:14:21.848Z,79.78
2022-08-11T23:17:11.349Z,79.64
2022-08-11T23:20:14.618Z,80.06
2022-08-11T23:23:20.131Z,79.57
2022-08-11T23:26:15.995Z,80.88
2022-08-11T23:29:10.641Z,80.46
2022-08-11T23:31:58.325Z,80.36
2022-08-11T23:35:04.364Z,80.36
2022-08-11T23:38:01.112Z,81.26
2022-08-11T23:40:48.635Z,81.84
2022-08-11T23:43:42.526Z,80.50
2022-08-11T23:46:41.508Z,80.51
2022-08-11T23:49:39.248Z,80.46
2022-08-11T23:52:29.167Z,80.53
2022-08-11T23:55:18.282Z,80.99
2022-08-11T23:58:06.534Z,81.58
